createdAt,value
2018-05-24T00:01:17.218Z,14.40
2018-05-24T00:03:44.113Z,14.40
2018-05-24T00:06:11.053Z,15.73
2018-05-24T00:08:37.992Z,14.50
2018-05-24T00:11:04.923Z,15.17
2018-05-24T00:13:31.858Z,14.77
2018-05-24T00:15:58.808Z,13.63
2018-05-24T00:18:25.740Z,13.77
2018-05-24T00:20:52.685Z,13.77
2018-05-24T00:23:19.580Z,12.70
2018-05-24T00:25:46.526Z,14.17
2018-05-24T00:28:13.428Z,13.63
2018-05-24T00:30:40.409Z,14.90
2018-05-24T00:33:07.311Z,15.47
2018-05-24T00:35:34.263Z,15.03
2018-05-24T00:38:01.164Z,15.17
2018-05-24T00:40:28.111Z,15.70
2018-05-24T00:42:55.008Z,14.20
2018-05-24T00:45:21.956Z,16.70
2018-05-24T00:47:48.851Z,13.97
2018-05-24T00:50:15.786Z,15.10
2018-05-24T00:52:42.686Z,14.20
2018-05-24T00:55:15.559Z,15.07
2018-05-24T00:57:42.469Z,15.27
2018-05-24T01:00:09.407Z,13.67
2018-05-24T01:02:36.310Z,14.97
2018-05-24T01:05:03.265Z,13.80
2018-05-24T01:07:30.168Z,13.80
2018-05-24T01:09:57.113Z,14.50
2018-05-24T01:12:24.028Z,14.50
2018-05-24T01:14:50.968Z,15.00
2018-05-24T01:17:17.876Z,13.20
2018-05-24T01:19:44.820Z,14.20
2018-05-24T01:22:11.725Z,14.07
2018-05-24T01:24:38.670Z,13.90
2018-05-24T01:27:05.617Z,13.50
2018-05-24T01:29:32.559Z,13.13
2018-05-24T01:31:59.459Z,13.10
2018-05-24T01:34:26.404Z,12.63
2018-05-24T01:36:59.251Z,15.13
2018-05-24T01:39:26.196Z,13.43
2018-05-24T01:41:53.100Z,14.40
2018-05-24T01:44:20.023Z,13.50
2018-05-24T01:46:46.967Z,14.00
2018-05-24T01:49:13.868Z,13.53
2018-05-24T01:51:40.813Z,13.60
2018-05-24T01:54:07.707Z,13.87
2018-05-24T01:56:34.656Z,14.57
2018-05-24T01:59:01.556Z,13.70
2018-05-24T02:01:28.503Z,14.90
2018-05-24T02:03:55.434Z,13.77
2018-05-24T02:06:22.378Z,14.20
2018-05-24T02:08:49.296Z,13.83
2018-05-24T02:11:16.244Z,14.80
2018-05-24T02:13:43.145Z,14.80
2018-05-24T02:16:10.095Z,16.60
2018-05-24T02:18:37.000Z,14.53
2018-05-24T02:21:03.936Z,15.00
2018-05-24T02:23:30.836Z,16.00
2018-05-24T02:25:57.778Z,14.57
2018-05-24T02:28:24.680Z,13.90
2018-05-24T02:30:51.615Z,14.30
2018-05-24T02:33:18.523Z,14.37
2018-05-24T02:35:45.499Z,16.57
2018-05-24T02:38:12.411Z,15.77
2018-05-24T02:40:39.351Z,14.83
2018-05-24T02:43:06.257Z,15.77
2018-05-24T02:45:33.196Z,14.10
2018-05-24T02:48:00.094Z,21.13
2018-05-24T02:50:27.036Z,15.57
2018-05-24T02:52:53.943Z,16.27
2018-05-24T02:55:20.896Z,16.17
2018-05-24T02:57:47.796Z,17.30
2018-05-24T03:00:14.728Z,15.07
2018-05-24T03:02:41.635Z,16.23
2018-05-24T03:05:08.576Z,15.20
2018-05-24T03:07:35.477Z,15.17
2018-05-24T03:10:02.454Z,14.83
2018-05-24T03:12:29.355Z,14.37
2018-05-24T03:14:56.296Z,15.43
2018-05-24T03:17:23.204Z,16.10
2018-05-24T03:19:50.268Z,14.67
2018-05-24T03:22:17.176Z,15.33
2018-05-24T03:24:44.073Z,14.87
2018-05-24T03:27:11.023Z,13.93
2018-05-24T03:29:37.924Z,14.47
2018-05-24T03:32:04.864Z,14.23
2018-05-24T03:34:31.780Z,14.40
2018-05-24T03:36:58.788Z,14.50
2018-05-24T03:39:25.693Z,14.27
2018-05-24T03:41:52.640Z,14.80
2018-05-24T03:44:19.535Z,14.13
2018-05-24T03:46:46.483Z,14.70
2018-05-24T03:49:13.459Z,15.43
2018-05-24T03:51:40.384Z,14.40
2018-05-24T03:54:07.285Z,15.23
2018-05-24T03:56:34.229Z,16.43
2018-05-24T03:59:20.032Z,14.63
2018-05-24T04:01:52.779Z,14.03
2018-05-24T04:04:25.497Z,14.27
2018-05-24T04:06:52.440Z,14.33
2018-05-24T04:09:19.344Z,15.23
2018-05-24T04:11:47.194Z,14.37
2018-05-24T04:14:14.105Z,15.47
2018-05-24T04:16:41.182Z,17.13
2018-05-24T04:19:08.081Z,16.20
2018-05-24T04:21:35.032Z,15.97
2018-05-24T04:24:01.923Z,15.13
2018-05-24T04:26:28.856Z,14.10
2018-05-24T04:28:55.748Z,13.73
2018-05-24T04:31:22.683Z,14.97
2018-05-24T04:33:49.575Z,13.80
2018-05-24T04:36:16.516Z,13.90
2018-05-24T04:38:43.411Z,14.70
2018-05-24T04:41:10.352Z,14.33
2018-05-24T04:43:37.251Z,13.40
2018-05-24T04:46:04.195Z,12.93
2018-05-24T04:48:31.095Z,14.60
2018-05-24T04:50:58.624Z,14.37
2018-05-24T04:53:25.519Z,12.70
2018-05-24T04:55:52.452Z,14.77
2018-05-24T04:58:19.348Z,13.10
2018-05-24T05:00:46.288Z,13.00
2018-05-24T05:03:13.192Z,14.50
2018-05-24T05:05:40.144Z,14.10
2018-05-24T05:08:07.044Z,13.57
2018-05-24T05:10:33.981Z,12.80
2018-05-24T05:13:00.914Z,13.80
2018-05-24T05:15:27.818Z,15.67
2018-05-24T05:17:54.760Z,17.53
2018-05-24T05:20:21.657Z,14.20
2018-05-24T05:22:48.600Z,15.20
2018-05-24T05:25:15.592Z,17.13
2018-05-24T05:27:42.563Z,15.37
2018-05-24T05:30:09.516Z,13.53
2018-05-24T05:32:36.452Z,13.33
2018-05-24T05:35:03.358Z,13.87
2018-05-24T05:37:30.324Z,13.23
2018-05-24T05:39:57.227Z,13.47
2018-05-24T05:42:24.159Z,13.40
2018-05-24T05:44:51.073Z,14.93
2018-05-24T05:47:18.053Z,14.03
2018-05-24T05:49:44.988Z,13.43
2018-05-24T05:52:12.004Z,14.63
2018-05-24T05:54:39.251Z,13.77
2018-05-24T05:57:06.289Z,14.43
2018-05-24T05:59:33.191Z,12.60
2018-05-24T06:02:00.244Z,12.23
2018-05-24T06:04:27.088Z,14.40
2018-05-24T06:06:54.194Z,15.10
2018-05-24T06:09:21.178Z,13.83
2018-05-24T06:11:48.152Z,14.27
2018-05-24T06:14:15.052Z,14.17
2018-05-24T06:16:42.019Z,13.47
2018-05-24T06:19:08.921Z,14.87
2018-05-24T06:21:35.910Z,13.83
2018-05-24T06:24:02.832Z,13.53
2018-05-24T06:26:29.778Z,12.33
2018-05-24T06:28:56.744Z,14.53
2018-05-24T06:31:23.747Z,12.90
2018-05-24T06:33:50.640Z,12.63
2018-05-24T06:36:17.896Z,13.97
2018-05-24T06:38:44.830Z,14.40
2018-05-24T06:41:11.764Z,13.83
2018-05-24T06:43:38.667Z,14.27
2018-05-24T06:46:05.600Z,13.40
2018-05-24T06:48:32.505Z,12.73
2018-05-24T06:50:59.450Z,14.43
2018-05-24T06:53:26.349Z,25.87
2018-05-24T06:55:53.248Z,13.17
2018-05-24T06:58:20.192Z,18.53
2018-05-24T07:00:47.235Z,11.63
2018-05-24T07:03:14.177Z,12.40
2018-05-24T07:05:41.079Z,12.20
2018-05-24T07:08:08.023Z,12.40
2018-05-24T07:10:34.933Z,11.93
2018-05-24T07:13:01.864Z,14.37
2018-05-24T07:15:28.907Z,13.43
2018-05-24T07:17:55.849Z,12.30
2018-05-24T07:20:22.748Z,11.80
2018-05-24T07:22:49.680Z,11.20
2018-05-24T07:25:16.576Z,25.70
2018-05-24T07:27:43.510Z,15.03
2018-05-24T07:30:10.416Z,12.97
2018-05-24T07:32:37.354Z,11.53
2018-05-24T07:35:04.261Z,13.50
2018-05-24T07:37:31.196Z,15.00
2018-05-24T07:39:58.095Z,12.77
2018-05-24T07:42:25.030Z,13.20
2018-05-24T07:44:51.923Z,11.63
2018-05-24T07:47:18.863Z,11.30
2018-05-24T07:49:45.756Z,10.23
2018-05-24T07:52:12.691Z,11.43
2018-05-24T07:54:39.594Z,17.43
2018-05-24T07:57:06.674Z,14.83
2018-05-24T07:59:33.575Z,10.13
2018-05-24T08:02:00.505Z,10.10
2018-05-24T08:04:27.438Z,11.60
2018-05-24T08:06:54.388Z,12.30
2018-05-24T08:09:21.280Z,10.90
2018-05-24T08:11:48.216Z,10.07
2018-05-24T08:14:15.112Z,11.47
2018-05-24T08:16:42.043Z,14.20
2018-05-24T08:19:08.936Z,11.57
2018-05-24T08:21:35.877Z,10.37
2018-05-24T08:24:02.868Z,13.10
2018-05-24T08:26:29.912Z,11.37
2018-05-24T08:28:56.803Z,11.00
2018-05-24T08:31:23.739Z,11.33
2018-05-24T08:33:50.748Z,9.80
2018-05-24T08:36:17.653Z,10.43
2018-05-24T08:38:44.585Z,10.70
2018-05-24T08:41:11.480Z,10.20
2018-05-24T08:43:38.404Z,9.93
2018-05-24T08:46:05.289Z,10.60
2018-05-24T08:48:32.227Z,10.30
2018-05-24T08:50:59.122Z,11.17
2018-05-24T08:53:26.081Z,10.13
2018-05-24T08:55:53.006Z,10.07
2018-05-24T08:58:19.944Z,10.40
2018-05-24T09:00:46.838Z,10.07
2018-05-24T09:03:13.767Z,11.50
2018-05-24T09:05:40.669Z,11.77
2018-05-24T09:08:07.608Z,11.20
2018-05-24T09:10:34.500Z,11.30
2018-05-24T09:13:01.432Z,11.60
2018-05-24T09:15:28.350Z,10.70
2018-05-24T09:17:55.291Z,11.10
2018-05-24T09:20:22.195Z,11.77
2018-05-24T09:22:49.138Z,12.10
2018-05-24T09:25:16.034Z,11.30
2018-05-24T09:27:42.968Z,10.77
2018-05-24T09:30:09.857Z,10.77
2018-05-24T09:32:36.791Z,11.73
2018-05-24T09:35:03.688Z,11.47
2018-05-24T09:37:30.620Z,11.47
2018-05-24T09:39:57.512Z,12.10
2018-05-24T09:42:24.448Z,11.67
2018-05-24T09:44:51.391Z,11.03
2018-05-24T09:47:19.160Z,19.20
2018-05-24T09:49:46.056Z,13.03
2018-05-24T09:52:12.993Z,14.23
2018-05-24T09:54:39.902Z,11.67
2018-05-24T09:57:06.842Z,12.07
2018-05-24T09:59:33.743Z,12.30
2018-05-24T10:02:00.680Z,12.27
2018-05-24T10:04:27.624Z,13.10
2018-05-24T10:06:54.565Z,12.10
2018-05-24T10:09:21.455Z,13.13
2018-05-24T10:11:48.387Z,13.50
2018-05-24T10:14:15.284Z,13.07
2018-05-24T10:16:42.192Z,13.33
2018-05-24T10:19:09.130Z,13.90
2018-05-24T10:21:36.079Z,13.20
2018-05-24T10:24:03.016Z,14.40
2018-05-24T10:26:29.905Z,13.50
2018-05-24T10:28:56.853Z,13.40
2018-05-24T10:31:23.755Z,15.00
2018-05-24T10:33:50.696Z,13.80
2018-05-24T10:36:17.586Z,14.43
2018-05-24T10:38:44.518Z,15.90
2018-05-24T10:41:11.419Z,14.03
2018-05-24T10:43:38.364Z,14.57
2018-05-24T10:46:05.261Z,13.57
2018-05-24T10:48:32.197Z,13.13
2018-05-24T10:50:59.091Z,14.23
2018-05-24T10:53:26.032Z,15.20
2018-05-24T10:55:52.928Z,13.83
2018-05-24T10:58:19.860Z,13.40
2018-05-24T11:00:46.755Z,12.83
2018-05-24T11:03:13.880Z,14.07
2018-05-24T11:05:40.743Z,13.27
2018-05-24T11:08:07.790Z,13.57
2018-05-24T11:10:34.837Z,14.23
2018-05-24T11:13:01.885Z,15.43
2018-05-24T11:15:28.934Z,12.53
2018-05-24T11:17:55.981Z,14.27
2018-05-24T11:20:23.028Z,14.20
2018-05-24T11:22:50.080Z,13.83
2018-05-24T11:25:17.178Z,13.60
2018-05-24T11:27:44.178Z,16.67
2018-05-24T11:30:11.224Z,13.70
2018-05-24T11:32:38.267Z,13.90
2018-05-24T11:35:05.314Z,15.70
2018-05-24T11:37:32.362Z,15.53
2018-05-24T11:39:59.308Z,14.80
2018-05-24T11:42:26.356Z,15.10
2018-05-24T11:44:53.340Z,14.83
2018-05-24T11:47:20.349Z,14.63
2018-05-24T11:49:47.335Z,14.47
2018-05-24T11:52:14.340Z,13.50
2018-05-24T11:54:42.002Z,13.93
2018-05-24T11:57:09.050Z,14.43
2018-05-24T11:59:36.099Z,15.20
2018-05-24T12:02:03.087Z,13.07
2018-05-24T12:04:30.194Z,15.03
2018-05-24T12:06:57.300Z,13.00
2018-05-24T12:09:24.392Z,13.13
2018-05-24T12:11:51.444Z,13.40
2018-05-24T12:14:18.490Z,14.03
2018-05-24T12:16:45.536Z,11.80
2018-05-24T12:19:12.582Z,11.03
2018-05-24T12:21:39.630Z,13.40
2018-05-24T12:24:06.617Z,11.47
2018-05-24T12:26:33.623Z,12.63
2018-05-24T12:29:00.718Z,12.00
2018-05-24T12:31:27.718Z,12.90
2018-05-24T12:33:54.767Z,13.97
2018-05-24T12:36:21.814Z,12.63
2018-05-24T12:38:48.963Z,13.90
2018-05-24T12:41:15.948Z,11.80
2018-05-24T12:43:42.958Z,12.20
2018-05-24T12:46:09.944Z,11.13
2018-05-24T12:48:36.951Z,11.70
2018-05-24T12:51:03.941Z,9.70
2018-05-24T12:53:31.046Z,12.63
2018-05-24T12:55:58.093Z,12.23
2018-05-24T12:58:25.083Z,11.40
2018-05-24T13:00:52.087Z,10.17
2018-05-24T13:03:19.134Z,11.50
2018-05-24T13:05:46.185Z,11.57
2018-05-24T13:08:13.230Z,9.83
2018-05-24T13:10:40.280Z,9.50
2018-05-24T13:13:07.200Z,9.40
2018-05-24T13:15:34.088Z,8.77
2018-05-24T13:18:01.114Z,8.80
2018-05-24T13:20:27.999Z,6.70
2018-05-24T13:22:54.923Z,7.73
2018-05-24T13:25:21.937Z,6.30
2018-05-24T13:27:48.868Z,5.03
2018-05-24T13:30:15.761Z,6.17
2018-05-24T13:32:42.697Z,6.20
2018-05-24T13:35:09.584Z,7.53
2018-05-24T13:37:36.516Z,6.90
2018-05-24T13:40:03.404Z,7.07
2018-05-24T13:42:30.336Z,4.13
2018-05-24T13:44:57.259Z,4.20
2018-05-24T13:47:24.144Z,6.60
2018-05-24T13:49:51.076Z,7.23
2018-05-24T13:54:42.891Z,7.03
2018-05-24T13:57:10.494Z,6.50
2018-05-24T13:59:38.143Z,6.43
2018-05-24T14:02:05.747Z,7.07
2018-05-24T14:04:33.393Z,6.73
2018-05-24T14:07:01.015Z,6.60
2018-05-24T14:09:28.668Z,8.10
2018-05-24T14:11:56.279Z,6.20
2018-05-24T14:14:23.940Z,6.30
2018-05-24T14:16:51.557Z,6.47
2018-05-24T14:19:19.213Z,3.63
2018-05-24T14:21:46.819Z,5.30
2018-05-24T14:24:14.462Z,4.57
2018-05-24T14:26:42.070Z,6.50
2018-05-24T14:29:09.731Z,6.00
2018-05-24T14:31:37.362Z,6.47
2018-05-24T14:34:05.012Z,4.87
2018-05-24T14:36:32.636Z,5.97
2018-05-24T14:39:00.284Z,4.73
2018-05-24T14:41:27.885Z,5.97
2018-05-24T14:43:55.531Z,5.70
2018-05-24T14:46:23.138Z,5.73
2018-05-24T14:48:50.782Z,5.40
2018-05-24T14:51:18.392Z,6.70
2018-05-24T14:53:46.038Z,6.00
2018-05-24T14:56:13.665Z,4.90
2018-05-24T14:58:41.319Z,9.43
2018-05-24T15:01:08.934Z,5.37
2018-05-24T15:03:36.583Z,6.50
2018-05-24T15:06:04.368Z,6.30
2018-05-24T15:08:32.072Z,5.03
2018-05-24T15:10:59.689Z,5.00
2018-05-24T15:13:39.103Z,5.07
2018-05-24T15:16:06.713Z,5.17
2018-05-24T15:18:34.414Z,4.40
2018-05-24T15:21:02.653Z,4.07
2018-05-24T15:23:30.307Z,4.40
2018-05-24T15:25:57.915Z,4.70
2018-05-24T15:28:25.567Z,4.13
2018-05-24T15:30:53.187Z,4.73
2018-05-24T15:33:20.860Z,4.97
2018-05-24T15:35:48.466Z,6.17
2018-05-24T15:38:16.141Z,4.20
2018-05-24T15:40:43.814Z,4.20
2018-05-24T15:43:11.474Z,6.43
2018-05-24T15:45:39.079Z,4.23
2018-05-24T15:48:06.867Z,4.47
2018-05-24T15:50:34.519Z,4.47
2018-05-24T15:53:02.129Z,4.90
2018-05-24T15:55:29.779Z,4.23
2018-05-24T15:57:57.383Z,4.43
2018-05-24T16:00:25.063Z,5.10
2018-05-24T16:02:52.672Z,5.47
2018-05-24T16:05:20.315Z,5.43
2018-05-24T16:07:47.919Z,4.57
2018-05-24T16:10:15.574Z,4.60
2018-05-24T16:12:43.184Z,4.60
2018-05-24T16:15:10.826Z,4.40
2018-05-24T16:17:38.426Z,5.10
2018-05-24T16:20:06.073Z,4.70
2018-05-24T16:22:33.682Z,5.47
2018-05-24T16:25:01.328Z,5.77
2018-05-24T16:27:28.934Z,5.50
2018-05-24T16:29:56.638Z,5.13
2018-05-24T16:32:24.246Z,5.77
2018-05-24T16:34:51.940Z,6.10
2018-05-24T16:37:19.578Z,4.60
2018-05-24T16:39:47.230Z,4.90
2018-05-24T16:42:14.834Z,5.70
2018-05-24T16:44:42.485Z,5.53
2018-05-24T16:47:10.091Z,5.37
2018-05-24T16:49:37.743Z,8.30
2018-05-24T16:52:05.348Z,5.93
2018-05-24T16:54:33.060Z,5.53
2018-05-24T16:57:00.663Z,5.23
2018-05-24T16:59:28.310Z,5.13
2018-05-24T17:01:55.914Z,5.30
2018-05-24T17:04:23.564Z,6.07
2018-05-24T17:06:51.167Z,5.00
2018-05-24T17:09:18.815Z,5.07
2018-05-24T17:11:46.486Z,4.73
2018-05-24T17:14:14.159Z,5.10
2018-05-24T17:16:41.763Z,5.10
2018-05-24T17:19:09.429Z,5.10
2018-05-24T17:21:37.038Z,5.97
2018-05-24T17:24:04.973Z,5.17
2018-05-24T17:26:32.579Z,5.10
2018-05-24T17:29:00.227Z,4.90
2018-05-24T17:31:27.838Z,5.23
2018-05-24T17:33:55.482Z,4.50
2018-05-24T17:36:23.091Z,4.07
2018-05-24T17:38:50.740Z,5.40
2018-05-24T17:41:18.468Z,4.97
2018-05-24T17:43:46.131Z,4.40
2018-05-24T17:46:13.734Z,4.70
2018-05-24T17:48:41.390Z,5.00
2018-05-24T17:51:09.037Z,4.50
2018-05-24T17:53:36.643Z,3.67
2018-05-24T17:56:04.324Z,5.50
2018-05-24T17:58:31.932Z,4.07
2018-05-24T18:00:59.578Z,3.90
2018-05-24T18:03:27.184Z,4.07
2018-05-24T18:05:54.827Z,4.90
2018-05-24T18:08:22.427Z,3.80
2018-05-24T18:10:50.066Z,4.10
2018-05-24T18:13:17.671Z,4.07
2018-05-24T18:15:45.321Z,3.77
2018-05-24T18:18:13.132Z,4.07
2018-05-24T18:20:40.789Z,4.10
2018-05-24T18:23:08.403Z,3.63
2018-05-24T18:25:36.050Z,4.33
2018-05-24T18:28:03.668Z,4.37
2018-05-24T18:30:31.317Z,3.77
2018-05-24T18:32:58.931Z,4.50
2018-05-24T18:35:26.579Z,3.67
2018-05-24T18:37:54.174Z,3.07
2018-05-24T18:42:55.719Z,3.83
2018-05-24T18:45:23.335Z,4.53
2018-05-24T18:47:50.937Z,3.70
2018-05-24T18:50:18.587Z,6.97
2018-05-24T18:52:46.187Z,4.03
2018-05-24T18:55:13.835Z,4.30
2018-05-24T18:57:41.445Z,3.50
2018-05-24T19:00:09.131Z,3.50
2018-05-24T19:02:36.739Z,4.30
2018-05-24T19:05:04.391Z,4.37
2018-05-24T19:07:32.000Z,3.70
2018-05-24T19:09:59.648Z,3.40
2018-05-24T19:12:27.250Z,4.37
2018-05-24T19:14:54.897Z,4.00
2018-05-24T19:17:22.508Z,4.23
2018-05-24T19:19:50.183Z,3.83
2018-05-24T19:22:17.827Z,4.17
2018-05-24T19:24:45.486Z,4.30
2018-05-24T19:27:13.092Z,4.17
2018-05-24T19:29:40.738Z,3.90
2018-05-24T19:32:08.362Z,4.00
2018-05-24T19:34:36.012Z,4.70
2018-05-24T19:37:03.615Z,4.80
2018-05-24T19:39:31.260Z,4.70
2018-05-24T19:41:58.866Z,3.93
2018-05-24T19:44:26.511Z,5.10
2018-05-24T19:46:54.131Z,4.43
2018-05-24T19:49:21.774Z,5.10
2018-05-24T19:51:49.382Z,5.03
2018-05-24T19:54:17.026Z,5.00
2018-05-24T19:56:44.638Z,5.03
2018-05-24T19:59:12.281Z,5.97
2018-05-24T20:01:39.883Z,7.60
2018-05-24T20:04:07.490Z,5.43
2018-05-24T20:06:35.671Z,5.30
2018-05-24T20:09:06.392Z,4.90
2018-05-24T20:11:34.033Z,5.30
2018-05-24T20:14:01.638Z,5.80
2018-05-24T20:16:29.287Z,4.73
2018-05-24T20:18:56.896Z,5.30
2018-05-24T20:21:24.547Z,5.20
2018-05-24T20:23:52.150Z,5.67
2018-05-24T20:26:19.795Z,4.80
2018-05-24T20:28:47.571Z,5.20
2018-05-24T20:31:15.286Z,5.13
2018-05-24T20:33:42.887Z,5.17
2018-05-24T20:36:10.604Z,5.63
2018-05-24T20:38:38.219Z,5.17
2018-05-24T20:41:06.046Z,5.67
2018-05-24T20:43:33.694Z,6.10
2018-05-24T20:46:01.406Z,5.23
2018-05-24T20:48:29.050Z,5.20
2018-05-24T20:50:56.697Z,5.60
2018-05-24T20:53:24.302Z,5.67
2018-05-24T20:55:51.947Z,5.93
2018-05-24T20:58:19.550Z,5.90
2018-05-24T21:00:47.197Z,7.17
2018-05-24T21:03:14.803Z,7.03
2018-05-24T21:05:42.456Z,7.13
2018-05-24T21:08:10.086Z,6.20
2018-05-24T21:10:37.739Z,7.80
2018-05-24T21:13:05.382Z,6.50
2018-05-24T21:15:33.030Z,6.53
2018-05-24T21:18:00.658Z,6.63
2018-05-24T21:20:28.314Z,7.03
2018-05-24T21:22:55.918Z,6.13
2018-05-24T21:25:23.568Z,8.30
2018-05-24T21:27:51.242Z,6.70
2018-05-24T21:30:18.884Z,6.43
2018-05-24T21:32:46.485Z,6.37
2018-05-24T21:35:14.131Z,8.33
2018-05-24T21:37:41.854Z,6.43
2018-05-24T21:40:09.498Z,7.47
2018-05-24T21:42:37.111Z,6.93
2018-05-24T21:45:04.758Z,7.00
2018-05-24T21:47:32.404Z,7.20
2018-05-24T21:50:00.050Z,7.10
2018-05-24T21:52:27.656Z,7.43
2018-05-24T21:54:55.298Z,7.23
2018-05-24T21:57:22.898Z,7.23
2018-05-24T21:59:50.550Z,6.67
2018-05-24T22:02:18.165Z,8.00
2018-05-24T22:04:45.813Z,7.57
2018-05-24T22:07:13.424Z,9.77
2018-05-24T22:09:41.030Z,6.83
2018-05-24T22:12:08.674Z,6.77
2018-05-24T22:14:36.274Z,7.50
2018-05-24T22:17:04.006Z,6.40
2018-05-24T22:19:31.603Z,7.17
2018-05-24T22:21:59.296Z,7.97
2018-05-24T22:24:26.898Z,6.27
2018-05-24T22:26:54.538Z,6.83
2018-05-24T22:29:22.161Z,11.93
2018-05-24T22:31:49.808Z,7.17
2018-05-24T22:34:17.416Z,8.57
2018-05-24T22:36:45.087Z,7.60
2018-05-24T22:39:12.689Z,6.97
2018-05-24T22:41:40.335Z,7.43
2018-05-24T22:44:07.946Z,8.40
2018-05-24T22:46:35.587Z,7.00
2018-05-24T22:49:03.201Z,7.67
2018-05-24T22:51:30.848Z,7.30
2018-05-24T22:53:58.455Z,7.33
2018-05-24T22:56:26.103Z,7.80
2018-05-24T22:58:53.715Z,7.37
2018-05-24T23:01:21.367Z,7.63
2018-05-24T23:03:48.976Z,7.53
2018-05-24T23:06:16.624Z,7.27
2018-05-24T23:08:44.227Z,9.17
2018-05-24T23:11:11.869Z,6.93
2018-05-24T23:13:39.483Z,6.90
2018-05-24T23:16:07.130Z,7.67
2018-05-24T23:18:34.735Z,7.33
2018-05-24T23:21:02.533Z,6.60
2018-05-24T23:23:30.147Z,7.30
2018-05-24T23:25:57.846Z,7.10
2018-05-24T23:28:25.430Z,8.53
2018-05-24T23:30:53.087Z,8.03
2018-05-24T23:33:20.694Z,7.53
2018-05-24T23:35:48.507Z,8.37
2018-05-24T23:38:16.134Z,7.40
2018-05-24T23:40:43.786Z,7.93
2018-05-24T23:43:11.387Z,8.10
2018-05-24T23:45:39.035Z,8.50
2018-05-24T23:48:06.676Z,8.37
2018-05-24T23:50:34.323Z,8.67
2018-05-24T23:53:01.934Z,9.10
2018-05-24T23:55:29.578Z,9.10
2018-05-24T23:57:57.183Z,8.40
